Time;durP1;ratioP1;P1;durP2;ratioP2;P2;SDS_P1;SDS_P2;PMS_P1;PMS_P2;Temp;Humidity;BMP_temperature;BMP_pressure;BME280_temperature;BME280_humidity;BME280_pressure;Samples;Min_cycle;Max_cycle;Signal;HPM_P1;HPM_P2
2021/06/01 04:16:13;;;;;;;6.10;5.50;;;;;;;6.82;84.45;99042.88;5526214;23;20060;-74
2021/06/01 04:18:38;;;;;;;7.00;5.43;;;;;;;6.75;84.62;99041.13;4898307;29;20040;-74
2021/06/01 04:21:03;;;;;;;7.07;5.60;;;;;;;6.69;84.69;99043.72;4898278;29;20028;-74
2021/06/01 04:23:29;;;;;;;9.52;5.90;;;;;;;6.67;84.67;99037.69;4881251;29;20021;-74
2021/06/01 04:25:54;;;;;;;6.85;5.18;;;;;;;6.69;84.42;99041.13;4903481;29;20075;-74
2021/06/01 04:28:19;;;;;;;9.90;5.10;;;;;;;6.72;84.24;99048.88;4914708;29;20043;-74
2021/06/01 04:30:45;;;;;;;9.95;5.20;;;;;;;6.77;84.18;99044.59;4909510;29;20035;-74
2021/06/01 04:33:14;;;;;;;11.25;4.93;;;;;;;6.86;84.08;99044.56;4912448;29;20028;-74
2021/06/01 04:35:40;;;;;;;6.40;5.35;;;;;;;6.91;83.87;99042.91;4911735;29;20752;-74
2021/06/01 04:38:06;;;;;;;7.72;5.00;;;;;;;7.05;83.32;99039.44;4910882;29;20041;-74
2021/06/01 04:40:32;;;;;;;9.07;5.55;;;;;;;7.12;83.21;99046.34;4909027;29;20035;-74
2021/06/01 04:42:57;;;;;;;5.60;5.00;;;;;;;7.16;82.90;99040.31;4894452;29;20577;-74
2021/06/01 04:45:29;;;;;;;8.20;5.22;;;;;;;7.25;82.37;99037.72;5040046;28;20414;-77
2021/06/01 04:47:54;;;;;;;6.35;4.85;;;;;;;7.36;82.25;99042.91;5039726;28;20045;-76
2021/06/01 04:50:20;;;;;;;5.22;4.72;;;;;;;7.39;81.68;99030.84;5034105;28;20040;-73
2021/06/01 04:52:46;;;;;;;9.23;6.05;;;;;;;7.47;81.90;99034.28;5039965;28;20021;-73
2021/06/01 04:55:12;;;;;;;11.93;5.70;;;;;;;7.52;81.52;99028.25;5039955;28;21468;-77
2021/06/01 04:57:38;;;;;;;5.85;5.10;;;;;;;7.62;81.11;99028.22;5039547;28;20036;-77
2021/06/01 05:00:06;;;;;;;14.38;5.35;;;;;;;7.74;81.21;99024.78;5039307;28;20048;-78
2021/06/01 05:02:31;;;;;;;5.80;5.30;;;;;;;7.79;80.73;99025.63;5038384;28;20029;-77
2021/06/01 05:04:57;;;;;;;6.18;5.15;;;;;;;7.89;80.04;99022.16;5039478;28;20029;-78
2021/06/01 05:07:22;;;;;;;6.78;4.75;;;;;;;8.06;79.84;99014.31;5039034;28;20062;-78
2021/06/01 05:09:48;;;;;;;9.05;5.70;;;;;;;8.19;78.46;99020.31;5039286;28;20392;-77
2021/06/01 05:12:13;;;;;;;6.32;4.88;;;;;;;8.28;78.32;99020.28;5039294;28;20453;-77
2021/06/01 05:14:38;;;;;;;6.63;4.68;;;;;;;8.50;78.03;99016.72;5039167;28;20060;-77
2021/06/01 05:17:03;;;;;;;4.50;4.10;;;;;;;8.64;77.07;99015.78;5038986;28;20036;-77
2021/06/01 05:19:29;;;;;;;6.75;4.00;;;;;;;8.66;77.15;99011.47;5039300;28;20473;-77
2021/06/01 05:21:55;;;;;;;6.47;4.13;;;;;;;8.87;77.48;99006.16;5039243;28;20453;-77
2021/06/01 05:24:20;;;;;;;8.50;4.55;;;;;;;9.14;76.15;99006.81;5038913;28;20025;-77
2021/06/01 05:26:45;;;;;;;5.15;4.32;;;;;;;9.07;75.79;99002.56;5038549;28;20039;-78
2021/06/01 05:29:10;;;;;;;5.18;4.53;;;;;;;9.17;75.40;99006.78;5038920;28;20029;-78
2021/06/01 05:31:57;;;;;;;7.50;4.43;;;;;;;9.30;74.81;99004.94;5038957;28;20032;-77
2021/06/01 05:34:24;;;;;;;5.13;4.72;;;;;;;9.27;75.09;99011.00;5038694;28;20028;-77
2021/06/01 05:36:51;;;;;;;8.80;5.18;;;;;;;9.44;74.47;99009.13;5038493;28;20514;-78
2021/06/01 05:39:16;;;;;;;8.57;4.60;;;;;;;9.60;74.39;99006.38;5038534;28;20183;-77
2021/06/01 05:41:41;;;;;;;5.40;4.90;;;;;;;9.84;73.99;99002.66;5038903;28;20493;-78
2021/06/01 05:44:07;;;;;;;5.85;4.57;;;;;;;10.00;72.97;99001.59;5038554;28;20037;-77
2021/06/01 05:46:34;;;;;;;4.93;4.32;;;;;;;10.18;72.50;99000.50;5038507;28;20785;-78
2021/06/01 05:48:59;;;;;;;4.53;4.13;;;;;;;10.44;72.09;98992.41;5038735;28;20073;-77
2021/06/01 05:51:32;;;;;;;5.43;4.43;;;;;;;10.65;70.83;98993.88;5038981;28;20017;-77
2021/06/01 05:53:57;;;;;;;5.25;4.22;;;;;;;10.78;70.08;99000.56;5039125;28;20398;-77
2021/06/01 05:56:22;;;;;;;5.50;4.45;;;;;;;10.63;69.69;98998.19;5028443;28;20053;-77
2021/06/01 05:58:48;;;;;;;6.18;4.50;;;;;;;10.58;70.46;99007.78;5025085;28;20517;-78
2021/06/01 06:01:13;;;;;;;7.38;4.68;;;;;;;10.79;70.00;98997.09;5025209;28;20033;-78
2021/06/01 06:03:38;;;;;;;5.63;5.00;;;;;;;11.01;69.81;99002.78;5025163;28;20030;-78
2021/06/01 06:06:11;;;;;;;9.52;4.60;;;;;;;11.16;68.23;98996.50;5014907;28;20124;-78
2021/06/01 06:08:36;;;;;;;9.48;4.85;;;;;;;11.39;69.25;98991.78;5023960;28;20029;-78
2021/06/01 06:11:01;;;;;;;10.55;4.55;;;;;;;11.52;67.74;98990.69;5024728;28;20046;-78
2021/06/01 06:13:27;;;;;;;8.27;4.32;;;;;;;11.64;67.10;98981.78;5025763;28;20032;-78
2021/06/01 06:15:52;;;;;;;12.70;4.50;;;;;;;11.87;66.74;98981.38;5024709;28;20113;-78
2021/06/01 06:18:26;;;;;;;8.20;4.65;;;;;;;12.09;67.16;98982.66;5024478;28;21347;-74
2021/06/01 06:20:51;;;;;;;6.78;4.63;;;;;;;12.31;66.78;98982.19;5023493;28;20033;-74
2021/06/01 06:23:17;;;;;;;6.45;4.57;;;;;;;12.60;65.67;98987.59;5024313;28;20048;-74
2021/06/01 06:25:42;;;;;;;10.20;4.22;;;;;;;12.75;64.30;98986.38;5024572;28;20176;-74
2021/06/01 06:28:08;;;;;;;6.47;4.63;;;;;;;12.80;63.51;98987.13;5024023;28;20045;-74
2021/06/01 06:30:33;;;;;;;6.10;4.45;;;;;;;12.86;63.28;98986.13;5024563;28;20034;-74
2021/06/01 06:32:58;;;;;;;5.03;4.10;;;;;;;13.18;63.59;98976.69;5023445;28;20032;-74
2021/06/01 06:35:24;;;;;;;8.05;4.03;;;;;;;13.65;63.74;98977.25;5024631;28;20070;-74
2021/06/01 06:37:50;;;;;;;5.70;3.83;;;;;;;13.43;61.52;98977.78;5022783;28;20084;-74
2021/06/01 06:40:16;;;;;;;7.10;3.90;;;;;;;13.67;61.20;98975.44;5024042;28;20029;-74
2021/06/01 06:42:42;;;;;;;4.45;3.88;;;;;;;13.98;59.94;98976.31;5023903;28;20031;-75
2021/06/01 06:45:09;;;;;;;6.43;4.00;;;;;;;14.50;59.94;98972.16;5023436;28;20029;-74
2021/06/01 06:50:09;;;;;;;6.95;3.70;;;;;;;15.54;55.53;98960.91;5024122;28;20116;-74
2021/06/01 06:52:35;;;;;;;4.20;3.83;;;;;;;16.75;52.28;98963.41;5023780;28;20033;-75
2021/06/01 06:55:03;;;;;;;4.72;3.17;;;;;;;18.69;46.29;98962.75;5023252;28;20033;-74
2021/06/01 06:57:28;;;;;;;5.57;3.15;;;;;;;18.42;46.46;98975.38;5022609;28;20027;-75
2021/06/01 06:59:53;;;;;;;3.00;2.58;;;;;;;21.24;40.80;98962.31;5023815;28;20033;-75
2021/06/01 07:02:19;;;;;;;5.40;3.20;;;;;;;20.75;40.35;98974.84;5023833;28;20026;-75
2021/06/01 07:04:45;;;;;;;2.88;2.60;;;;;;;21.33;39.60;98960.13;5023977;28;20032;-75
2021/06/01 07:07:10;;;;;;;3.60;2.97;;;;;;;21.14;39.88;98960.31;5021716;28;20037;-76
2021/06/01 07:09:38;;;;;;;4.88;3.13;;;;;;;22.35;37.30;98959.16;5023830;28;20520;-73
2021/06/01 07:12:04;;;;;;;6.97;2.67;;;;;;;22.62;36.93;98958.31;5023188;28;20057;-73
2021/06/01 07:14:45;;;;;;;6.30;2.17;;;;;;;24.25;33.91;98949.91;5022879;28;20068;-73
2021/06/01 07:17:11;;;;;;;2.50;2.30;;;;;;;24.35;34.81;98950.94;5023323;28;20044;-73
2021/06/01 07:19:36;;;;;;;4.20;1.80;;;;;;;26.11;30.50;98947.50;5022457;28;20025;-73
2021/06/01 07:22:02;;;;;;;1.65;1.55;;;;;;;24.17;33.67;98946.09;5023171;28;20715;-73
2021/06/01 07:24:28;;;;;;;5.75;2.50;;;;;;;25.27;31.55;98941.56;5023676;28;20038;-73
2021/06/01 07:26:53;;;;;;;2.13;1.75;;;;;;;24.93;31.04;98942.38;5023236;28;20033;-73
2021/06/01 07:29:19;;;;;;;1.60;1.50;;;;;;;25.67;30.31;98941.16;5023151;28;20117;-73
2021/06/01 07:31:44;;;;;;;3.28;1.70;;;;;;;26.99;28.87;98943.94;5016803;28;20035;-73
2021/06/01 07:34:10;;;;;;;4.10;1.70;;;;;;;26.56;28.63;98937.66;5023247;28;20380;-73
2021/06/01 07:36:36;;;;;;;4.13;1.63;;;;;;;24.85;29.06;98938.50;5021918;28;20017;-73
2021/06/01 07:39:03;;;;;;;3.17;1.80;;;;;;;24.67;29.61;98933.69;5016784;28;20662;-73
2021/06/01 07:41:28;;;;;;;2.28;1.50;;;;;;;25.17;29.74;98935.25;5022686;28;20048;-73
2021/06/01 07:43:55;;;;;;;3.38;1.90;;;;;;;27.06;27.11;98934.47;5022510;28;20461;-74
2021/06/01 07:46:20;;;;;;;4.78;1.50;;;;;;;25.67;28.86;98929.69;5022644;28;20501;-73
2021/06/01 07:48:45;;;;;;;1.55;1.45;;;;;;;24.02;30.83;98933.00;5022675;28;20029;-73
2021/06/01 07:51:11;;;;;;;2.63;1.70;;;;;;;23.63;29.83;98931.28;5022987;28;21472;-73
2021/06/01 07:53:40;;;;;;;2.83;1.70;;;;;;;24.91;29.15;98920.44;5022177;28;20018;-73
2021/06/01 07:56:07;;;;;;;;;;;;;;;24.35;29.03;98924.44;5021480;28;20430;-73
2021/06/01 07:58:33;;;;;;;5.78;1.55;;;;;;;26.79;26.10;98922.50;5022784;28;19962;-73
2021/06/01 08:00:59;;;;;;;3.70;1.55;;;;;;;24.91;27.50;98925.75;5022539;28;20037;-73
2021/06/01 08:03:24;;;;;;;2.45;1.58;;;;;;;27.32;25.35;98917.19;5022633;28;20029;-73
2021/06/01 08:05:51;;;;;;;4.57;1.70;;;;;;;25.17;26.94;98922.00;5021452;28;20033;-73
2021/06/01 08:08:17;;;;;;;2.25;1.65;;;;;;;24.68;27.58;98914.19;5022878;28;20029;-77
2021/06/01 08:10:42;;;;;;;2.88;1.58;;;;;;;24.18;27.71;98922.19;5022652;28;20052;-77
2021/06/01 08:13:07;;;;;;;6.82;1.65;;;;;;;24.56;27.98;98921.22;5022588;28;21144;-77
2021/06/01 08:15:33;;;;;;;3.60;1.70;;;;;;;25.22;27.59;98911.88;5022601;28;20025;-77
2021/06/01 08:18:02;;;;;;;5.40;1.70;;;;;;;24.34;27.38;98927.22;5021080;28;20021;-76
2021/06/01 08:22:53;;;;;;;4.18;1.50;;;;;;;24.10;28.16;98916.56;5021997;28;20021;-77
2021/06/01 08:25:18;;;;;;;4.32;1.40;;;;;;;23.71;28.16;98905.19;5022244;28;20064;-77
2021/06/01 08:27:43;;;;;;;3.67;1.40;;;;;;;24.46;27.32;98910.44;5021968;28;20037;-77
2021/06/01 08:30:09;;;;;;;3.80;1.50;;;;;;;23.56;27.75;98908.88;5021745;28;20071;-77
2021/06/01 08:32:35;;;;;;;1.60;1.50;;;;;;;25.36;27.05;98901.06;5022880;28;20041;-76
2021/06/01 08:35:01;;;;;;;5.93;1.85;;;;;;;23.61;27.88;98906.75;5022863;28;20103;-77
2021/06/01 08:37:26;;;;;;;2.72;1.80;;;;;;;23.60;28.08;98907.72;5022266;28;20443;-77
2021/06/01 08:39:51;;;;;;;1.83;1.40;;;;;;;25.57;25.46;98895.06;5016410;28;20039;-77
2021/06/01 08:42:17;;;;;;;1.55;1.30;;;;;;;24.01;26.10;98904.00;5021887;28;20056;-77
2021/06/01 08:44:42;;;;;;;1.85;1.48;;;;;;;25.27;26.73;98896.47;5020915;28;20033;-77
2021/06/01 08:47:09;;;;;;;1.58;1.48;;;;;;;25.40;25.38;98895.53;5022004;28;20120;-77
2021/06/01 08:49:36;;;;;;;1.55;1.40;;;;;;;25.77;25.81;98893.53;5022047;28;20025;-79
2021/06/01 08:52:01;;;;;;;2.45;1.35;;;;;;;25.84;25.25;98906.22;5021211;28;20375;-79
2021/06/01 08:54:27;;;;;;;2.58;1.20;;;;;;;26.05;24.11;98897.50;5022050;28;20421;-77
2021/06/01 08:56:53;;;;;;;3.55;1.65;;;;;;;26.44;24.85;98897.94;5022190;28;20018;-77
2021/06/01 08:59:18;;;;;;;4.30;1.88;;;;;;;25.15;25.77;98892.09;5021977;28;21407;-79
2021/06/01 09:01:44;;;;;;;2.50;1.50;;;;;;;26.06;24.67;98899.19;5021848;28;20037;-79
2021/06/01 09:04:11;;;;;;;2.33;1.23;;;;;;;27.38;22.59;98887.38;5020981;28;20026;-80
2021/06/01 09:06:53;;;;;;;7.63;1.63;;;;;;;26.21;23.79;98897.13;5021987;28;20387;-79
2021/06/01 09:09:42;;;;;;;5.00;1.80;;;;;;;27.55;22.14;98885.09;5022078;28;20032;-79
2021/06/01 09:15:08;;;;;;;4.72;1.35;;;;;;;26.63;22.76;98892.81;5021979;28;19917;-77
2021/06/01 09:23:06;;;;;;;3.10;1.52;;;;;;;27.59;23.32;98886.50;5022049;28;20056;-77
2021/06/01 09:25:39;;;;;;;4.30;1.50;;;;;;;26.94;22.76;98876.97;5021822;28;20036;-77
2021/06/01 09:28:09;;;;;;;1.75;1.63;;;;;;;26.18;22.69;98879.63;5020378;28;20177;-78
2021/06/01 09:30:40;;;;;;;2.80;1.70;;;;;;;25.47;24.14;98875.50;5022790;28;20037;-77
2021/06/01 09:33:16;;;;;;;1.58;1.45;;;;;;;24.54;24.36;98880.75;5025690;28;20095;-77
2021/06/01 09:35:51;;;;;;;2.85;1.02;;;;;;;26.36;24.11;98867.50;5024494;28;20036;-77
2021/06/01 09:38:19;;;;;;;2.20;1.60;;;;;;;25.34;23.85;98860.56;5025050;28;20118;-77
2021/06/01 09:40:46;;;;;;;3.53;1.30;;;;;;;26.99;23.95;98862.31;5024980;28;20086;-74
2021/06/01 09:43:14;;;;;;;3.88;1.67;;;;;;;26.51;23.00;98861.94;5039213;28;20057;-74
2021/06/01 09:45:41;;;;;;;3.35;1.27;;;;;;;25.91;22.78;98863.22;5025567;28;20021;-77
2021/06/01 09:48:08;;;;;;;2.10;1.48;;;;;;;25.80;23.24;98856.97;5025014;28;20617;-77
2021/06/01 09:51:08;;;;;;;1.95;1.40;;;;;;;26.39;23.61;98859.25;5024534;28;20041;-77
2021/06/01 09:53:34;;;;;;;4.30;1.75;;;;;;;26.15;22.83;98855.94;5025295;28;20306;-77
2021/06/01 09:56:00;;;;;;;2.92;1.30;;;;;;;27.32;22.48;98837.34;5025074;28;20031;-73
2021/06/01 09:58:37;;;;;;;5.25;1.80;;;;;;;26.60;22.51;98850.56;5024876;28;20036;-73
2021/06/01 10:01:04;;;;;;;2.92;1.60;;;;;;;27.97;22.45;98832.59;5024519;28;20033;-74
2021/06/01 10:03:46;;;;;;;3.88;1.50;;;;;;;28.28;22.17;98845.81;5024199;28;20036;-74
2021/06/01 10:06:12;;;;;;;2.38;1.30;;;;;;;27.92;21.40;98840.97;5024558;28;20045;-74
2021/06/01 10:08:52;;;;;;;1.73;1.33;;;;;;;27.42;21.86;98835.59;5025116;28;20025;-74
2021/06/01 10:11:17;;;;;;;1.30;1.20;;;;;;;25.41;24.26;98845.00;5024728;28;20091;-77
2021/06/01 10:13:43;;;;;;;6.40;1.45;;;;;;;27.03;22.57;98831.84;5024306;28;20025;-77
2021/06/01 10:16:11;;;;;;;8.13;1.60;;;;;;;26.90;22.39;98832.03;5024790;28;20036;-77
2021/06/01 10:18:40;;;;;;;2.83;1.50;;;;;;;28.29;21.67;98827.03;5024971;28;20383;-79
2021/06/01 10:21:12;;;;;;;4.32;1.42;;;;;;;26.87;21.50;98826.94;5024722;28;20040;-79
2021/06/01 10:23:43;;;;;;;1.55;1.30;;;;;;;26.97;22.41;98826.19;5024551;28;20079;-79
2021/06/01 10:26:12;;;;;;;5.53;1.33;;;;;;;27.92;21.44;98809.00;5022806;28;20038;-79
2021/06/01 10:28:45;;;;;;;2.58;1.42;;;;;;;26.91;21.56;98816.91;5024415;28;20060;-77
2021/06/01 10:31:14;;;;;;;1.50;1.40;;;;;;;29.37;20.53;98816.16;5025042;28;20394;-77
2021/06/01 10:34:09;;;;;;;2.22;1.40;;;;;;;28.12;20.78;98815.22;5023214;28;20140;-77
2021/06/01 10:50:48;;;;;;;1.50;1.10;;;;;;;26.84;21.53;98810.44;5029236;28;20029;-77
2021/06/01 10:53:20;;;;;;;4.72;1.45;;;;;;;27.31;21.44;98809.03;5024359;28;20048;-77
2021/06/01 10:55:48;;;;;;;2.50;1.38;;;;;;;28.68;20.47;98797.75;5023983;28;20026;-77
2021/06/01 10:58:14;;;;;;;2.83;2.03;;;;;;;29.85;18.55;98796.44;5023966;28;20040;-77
2021/06/01 11:03:10;;;;;;;15.90;2.72;;;;;;;28.73;20.92;98798.16;5024510;28;20033;-78
2021/06/01 11:06:00;;;;;;;15.20;6.45;;;;;;;30.76;18.73;98791.00;5024137;28;20033;-76
2021/06/01 11:08:51;;;;;;;2.15;1.58;;;;;;;29.83;19.61;98787.69;5021847;28;20091;-73
2021/06/01 11:11:32;;;;;;;3.78;1.60;;;;;;;27.93;20.59;98778.72;5020488;28;20211;-73
2021/06/01 11:14:02;;;;;;;1.83;1.30;;;;;;;29.17;20.54;98774.50;5021367;28;20028;-73
2021/06/01 11:16:57;;;;;;;2.55;1.10;;;;;;;28.27;20.54;98781.00;5021817;28;20025;-73
2021/06/01 11:19:27;;;;;;;3.53;1.27;;;;;;;26.80;21.46;98771.78;5021956;28;20067;-77
2021/06/01 11:22:04;;;;;;;2.00;1.30;;;;;;;27.18;21.14;98776.50;5022570;28;20421;-77
2021/06/01 11:25:09;;;;;;;2.45;1.20;;;;;;;28.04;21.00;98779.59;5022862;28;20092;-77
2021/06/01 11:33:17;;;;;;;2.67;1.42;;;;;;;28.88;20.63;98762.06;5023627;28;20441;-77
2021/06/01 11:35:48;;;;;;;1.75;1.23;;;;;;;27.91;20.57;98770.06;5022638;28;20048;-77
2021/06/01 11:38:50;;;;;;;1.70;1.60;;;;;;;27.25;22.24;98774.97;5023277;28;20128;-77
2021/06/01 11:43:48;;;;;;;3.78;1.65;;;;;;;27.40;21.71;98760.34;5023314;28;20120;-76
2021/06/01 11:51:48;;;;;;;1.95;1.50;;;;;;;27.32;22.08;98751.34;5023256;28;20428;-75
2021/06/01 11:54:16;;;;;;;5.68;1.80;;;;;;;25.96;24.38;98760.97;5022245;28;20029;-76
2021/06/01 12:18:28;;;;;;;4.40;1.90;;;;;;;24.88;25.35;98717.38;5021969;28;20132;-75
2021/06/01 12:20:54;;;;;;;2.83;1.70;;;;;;;25.45;26.69;98718.25;5022252;28;20495;-75
2021/06/01 12:23:33;;;;;;;4.22;1.70;;;;;;;24.74;26.50;98722.91;5021610;28;20494;-75
2021/06/01 12:25:59;;;;;;;3.33;1.70;;;;;;;25.16;26.92;98718.75;5022584;28;20037;-75
2021/06/01 12:31:14;;;;;;;3.70;1.60;;;;;;;25.30;25.25;98721.16;4994513;28;20048;-75
2021/06/01 12:33:40;;;;;;;;;;;;;;;25.60;25.92;98727.63;5022354;28;20059;-74
2021/06/01 12:41:49;;;;;;;2.38;1.80;;;;;;;24.30;27.19;98720.00;5022305;28;20144;-78
2021/06/01 12:44:15;;;;;;;1.80;1.42;;;;;;;24.29;26.60;98723.63;5022234;28;20022;-78
2021/06/01 12:47:00;;;;;;;8.63;1.90;;;;;;;24.35;26.55;98712.53;5021382;28;20474;-71
2021/06/01 13:20:27;;;;;;;3.53;1.40;;;;;;;23.89;26.23;98671.97;5025283;28;20510;-78
2021/06/01 13:23:22;;;;;;;1.88;1.42;;;;;;;23.96;26.18;98668.72;5023542;28;20036;-78
2021/06/01 13:37:39;;;;;;;2.47;1.40;;;;;;;24.35;25.92;98656.94;5025741;28;20099;-79
2021/06/01 13:56:21;;;;;;;2.40;1.30;;;;;;;23.88;26.85;98644.63;5024117;28;20130;-78
2021/06/01 14:10:37;;;;;;;1.73;1.63;;;;;;;24.19;26.62;98640.53;5025180;28;20060;-80
2021/06/01 14:15:32;;;;;;;1.30;1.20;;;;;;;24.70;27.16;98626.88;5025343;28;20513;-79
2021/06/01 15:29:19;;;;;;;2.30;1.48;;;;;;;24.58;26.48;98569.56;5023068;28;20068;-79
2021/06/01 15:50:30;;;;;;;3.53;1.60;;;;;;;25.54;26.50;98555.66;5023475;28;20091;-79
2021/06/01 16:23:00;;;;;;;5.07;1.60;;;;;;;24.57;25.56;98536.94;5023408;28;20040;-74
2021/06/01 17:03:07;;;;;;;6.13;1.58;;;;;;;24.18;26.30;98534.75;5030022;28;20033;-76
2021/06/01 17:06:26;;;;;;;2.33;1.50;;;;;;;23.92;25.84;98534.94;5010230;28;20036;-76
2021/06/01 17:11:28;;;;;;;3.35;1.30;;;;;;;24.42;25.57;98519.63;5009975;28;20034;-75
2021/06/01 17:13:55;;;;;;;3.30;1.30;;;;;;;24.45;25.87;98526.47;5010208;28;20496;-76
2021/06/01 17:34:55;;;;;;;3.95;1.52;;;;;;;23.48;27.15;98519.75;5010211;28;20025;-76
2021/06/01 17:37:21;;;;;;;1.80;1.52;;;;;;;23.45;27.47;98514.69;5009618;28;20025;-76
2021/06/01 17:39:47;;;;;;;2.60;1.98;;;;;;;23.42;27.57;98518.41;5010177;28;20045;-76
2021/06/01 17:42:16;;;;;;;7.68;1.60;;;;;;;23.26;27.58;98518.72;5009870;28;20161;-76
2021/06/01 17:44:43;;;;;;;6.40;1.83;;;;;;;23.28;28.01;98518.59;5009652;28;20026;-76
2021/06/01 17:47:13;;;;;;;4.93;1.40;;;;;;;23.40;27.52;98514.19;5009480;28;20541;-76
2021/06/01 17:49:39;;;;;;;4.57;1.55;;;;;;;23.14;28.26;98514.31;5010023;28;20041;-76
2021/06/01 17:52:05;;;;;;;7.38;1.40;;;;;;;22.99;28.40;98518.09;5011200;28;20524;-76
2021/06/01 17:54:33;;;;;;;1.65;1.23;;;;;;;22.77;29.18;98522.28;5013518;28;20026;-76
2021/06/01 17:56:59;;;;;;;5.32;1.63;;;;;;;23.01;27.91;98521.47;5013160;28;20112;-76
2021/06/01 17:59:26;;;;;;;2.15;1.58;;;;;;;22.78;27.79;98516.03;5013335;28;20167;-76
2021/06/01 18:01:53;;;;;;;2.53;1.60;;;;;;;22.78;28.94;98525.75;5013263;28;20030;-76
2021/06/01 18:04:23;;;;;;;5.53;1.42;;;;;;;22.79;28.70;98517.72;5013129;28;20060;-76
2021/06/01 18:06:52;;;;;;;4.28;1.48;;;;;;;22.50;28.82;98521.59;5013107;28;20446;-76
2021/06/01 18:12:05;;;;;;;4.85;1.90;;;;;;;22.41;29.07;98516.97;5013033;28;19924;-74
2021/06/01 19:42:24;;;;;;;1.80;1.67;;;;;;;17.97;41.06;98565.78;5011440;28;20486;-78
2021/06/01 19:50:48;;;;;;;5.00;2.45;;;;;;;17.38;44.11;98582.72;5011448;28;20095;-77
2021/06/01 19:53:15;;;;;;;2.33;2.13;;;;;;;17.32;44.43;98582.16;5011249;28;20506;-81
2021/06/01 19:55:41;;;;;;;2.92;2.50;;;;;;;17.27;44.21;98585.00;5011196;28;20494;-79
2021/06/01 19:58:07;;;;;;;2.72;2.10;;;;;;;17.13;44.40;98585.66;5010657;28;20029;-79
2021/06/01 20:00:33;;;;;;;7.30;2.15;;;;;;;17.00;44.08;98576.69;5011133;28;20563;-79
2021/06/01 20:03:00;;;;;;;3.00;2.10;;;;;;;16.93;43.83;98580.53;5010614;28;20033;-77
2021/06/01 20:05:26;;;;;;;4.32;2.05;;;;;;;16.92;44.17;98581.44;5010722;28;20037;-79
2021/06/01 20:07:52;;;;;;;3.42;2.00;;;;;;;16.82;45.24;98598.47;5011286;28;20036;-72
2021/06/01 20:10:17;;;;;;;4.43;2.40;;;;;;;16.81;46.18;98596.78;5010806;28;20030;-77
2021/06/01 20:12:43;;;;;;;3.28;2.90;;;;;;;16.60;47.79;98591.59;5010507;28;20025;-77
2021/06/01 20:15:12;;;;;;;4.10;2.45;;;;;;;16.57;47.60;98603.97;5010214;28;20022;-77
2021/06/01 20:17:42;;;;;;;3.75;2.30;;;;;;;16.40;48.09;98596.88;5010441;28;20022;-77
2021/06/01 20:20:11;;;;;;;5.30;2.28;;;;;;;16.25;49.10;98602.78;5010326;28;20491;-77
2021/06/01 20:22:46;;;;;;;4.10;2.08;;;;;;;16.19;49.30;98594.28;5010780;28;20034;-77
2021/06/01 20:25:13;;;;;;;4.47;2.55;;;;;;;16.05;50.92;98596.66;5010424;28;20041;-77
2021/06/01 20:27:45;;;;;;;3.22;2.45;;;;;;;15.67;51.69;98588.69;5010224;28;20037;-77
2021/06/01 20:30:15;;;;;;;17.30;8.98;;;;;;;15.76;52.01;98594.41;5010182;28;20057;-77
2021/06/01 20:35:27;;;;;;;7.80;4.00;;;;;;;15.66;51.52;98593.94;5010486;28;20060;-77
2021/06/01 20:37:53;;;;;;;5.93;3.50;;;;;;;15.56;51.55;98596.06;5010535;28;20474;-77
2021/06/01 20:40:23;;;;;;;8.98;4.57;;;;;;;15.58;51.94;98602.09;5010168;28;20087;-76
2021/06/01 20:42:54;;;;;;;5.82;2.90;;;;;;;15.47;51.97;98593.81;5010444;28;20029;-77
2021/06/01 20:45:26;;;;;;;4.05;3.47;;;;;;;15.41;52.00;98588.84;5010231;28;20061;-77
2021/06/01 20:47:54;;;;;;;4.50;2.97;;;;;;;15.36;52.44;98596.03;5010697;28;20125;-77
2021/06/01 20:50:20;;;;;;;5.32;4.03;;;;;;;15.32;52.95;98591.84;4992429;28;20092;-77
2021/06/01 20:52:45;;;;;;;6.75;3.10;;;;;;;15.24;53.71;98592.16;5010170;28;20025;-77
2021/06/01 20:55:12;;;;;;;6.35;2.83;;;;;;;15.22;53.68;98588.75;5010303;28;20037;-77
2021/06/01 20:57:40;;;;;;;4.20;2.85;;;;;;;15.07;54.91;98594.56;5009825;28;20116;-77
2021/06/01 21:00:09;;;;;;;9.68;3.53;;;;;;;15.02;54.22;98586.91;5010013;28;20104;-77
2021/06/01 21:02:39;;;;;;;5.57;3.47;;;;;;;15.03;53.92;98592.97;5010427;28;20029;-77
2021/06/01 21:05:06;;;;;;;3.60;2.67;;;;;;;14.88;55.08;98600.50;5010545;28;20026;-73
2021/06/01 21:07:32;;;;;;;5.35;2.72;;;;;;;14.72;55.78;98606.38;5011099;28;20100;-73
2021/06/01 21:10:01;;;;;;;5.03;2.45;;;;;;;14.75;56.28;98594.06;5011241;28;20022;-72
2021/06/01 21:12:26;;;;;;;3.60;2.67;;;;;;;14.62;56.20;98604.09;5007966;28;20018;-73
2021/06/01 21:14:52;;;;;;;5.68;3.00;;;;;;;14.52;56.73;98602.75;4993521;28;20106;-73
2021/06/01 21:17:21;;;;;;;3.97;2.85;;;;;;;14.37;56.90;98603.28;5010990;28;20041;-73
2021/06/01 21:19:46;;;;;;;4.13;2.75;;;;;;;14.35;57.03;98605.06;5006248;28;20030;-73
2021/06/01 21:22:11;;;;;;;5.05;3.53;;;;;;;14.26;57.03;98605.38;5011047;28;20022;-73
2021/06/01 21:24:37;;;;;;;7.93;4.45;;;;;;;14.15;58.05;98601.41;5007366;28;20038;-72
2021/06/01 21:27:02;;;;;;;9.10;4.88;;;;;;;14.07;58.06;98606.06;5012616;28;20501;-73
2021/06/01 21:29:27;;;;;;;15.60;6.80;;;;;;;14.00;58.64;98607.16;5015037;28;20463;-73
2021/06/01 21:32:06;;;;;;;8.77;5.47;;;;;;;13.93;59.46;98604.84;5014468;28;20056;-73
2021/06/01 21:34:39;;;;;;;6.82;4.78;;;;;;;13.92;59.54;98606.56;5004761;28;20014;-73
2021/06/01 21:37:05;;;;;;;8.25;4.40;;;;;;;13.85;59.75;98605.09;4995481;28;20352;-73
2021/06/01 21:39:36;;;;;;;5.93;4.50;;;;;;;13.72;60.49;98598.59;5007304;28;20028;-73
2021/06/01 21:42:02;;;;;;;4.07;3.15;;;;;;;13.57;60.21;98603.41;5008691;28;20057;-73
2021/06/01 21:44:29;;;;;;;4.05;3.17;;;;;;;13.44;60.84;98609.94;5010194;28;20034;-73
2021/06/01 21:47:00;;;;;;;5.20;3.58;;;;;;;13.33;61.70;98614.59;5009072;28;20019;-73
2021/06/01 21:49:26;;;;;;;5.30;3.67;;;;;;;13.35;61.44;98615.41;5008809;28;20652;-72
2021/06/01 21:51:56;;;;;;;5.10;3.70;;;;;;;13.30;61.64;98617.31;5006906;28;20066;-73
2021/06/01 21:54:25;;;;;;;5.05;3.67;;;;;;;13.20;62.34;98616.72;5014378;28;20060;-73
2021/06/01 21:56:52;;;;;;;5.05;3.50;;;;;;;13.08;62.68;98617.94;5014527;28;20109;-73
2021/06/01 21:59:21;;;;;;;6.40;3.40;;;;;;;13.09;62.94;98619.63;5012908;28;20078;-72
2021/06/01 22:01:49;;;;;;;3.78;2.90;;;;;;;13.14;62.03;98616.91;5014415;28;20026;-73
2021/06/01 22:04:15;;;;;;;4.50;3.60;;;;;;;13.19;62.06;98616.75;5014299;28;20044;-73
2021/06/01 22:06:40;;;;;;;5.47;3.78;;;;;;;13.22;61.41;98614.94;5014229;28;20060;-72
2021/06/01 22:09:06;;;;;;;6.82;3.85;;;;;;;13.13;62.08;98630.81;5014282;28;20109;-72
2021/06/01 22:11:31;;;;;;;4.70;3.15;;;;;;;13.05;62.87;98637.97;5014048;28;20060;-73
2021/06/01 22:13:57;;;;;;;7.03;3.22;;;;;;;12.95;63.44;98629.59;5014318;28;20041;-72
2021/06/01 22:16:25;;;;;;;12.57;3.83;;;;;;;12.85;63.71;98630.78;5013964;28;20080;-73
2021/06/01 22:18:54;;;;;;;6.97;4.15;;;;;;;12.79;63.91;98633.56;5014114;28;20461;-72
2021/06/01 22:21:20;;;;;;;7.93;4.20;;;;;;;12.79;63.59;98636.16;5014072;28;20025;-72
2021/06/01 22:23:56;;;;;;;9.25;3.95;;;;;;;12.77;64.08;98635.38;5013989;28;20463;-72
2021/06/01 22:26:27;;;;;;;7.60;3.67;;;;;;;12.76;63.88;98644.03;5013859;28;20033;-72
2021/06/01 22:28:54;;;;;;;6.55;3.60;;;;;;;12.71;64.11;98643.31;5014004;28;20124;-73
2021/06/01 22:31:21;;;;;;;10.40;5.18;;;;;;;12.66;64.35;98640.84;5013889;28;20120;-72
2021/06/01 22:33:48;;;;;;;5.20;3.60;;;;;;;12.55;64.68;98638.56;5013840;28;20022;-72
2021/06/01 22:36:16;;;;;;;6.65;3.60;;;;;;;12.52;64.90;98638.69;5011100;28;20119;-72
2021/06/01 22:38:53;;;;;;;7.90;3.60;;;;;;;12.53;65.25;98652.53;5013606;28;20057;-72
2021/06/01 22:41:20;;;;;;;5.40;3.60;;;;;;;12.50;65.07;98645.66;5031647;22;20525;-70
2021/06/01 22:43:47;;;;;;;9.15;3.90;;;;;;;12.34;65.59;98645.22;4990514;28;20464;-70
2021/06/01 22:46:16;;;;;;;6.72;3.72;;;;;;;12.32;65.91;98646.16;4993850;28;20394;-70
2021/06/01 22:48:43;;;;;;;9.10;4.28;;;;;;;12.27;66.26;98648.00;4989545;28;20027;-70
2021/06/01 22:51:11;;;;;;;9.48;4.32;;;;;;;12.15;66.69;98646.63;4993834;28;20493;-70
2021/06/01 22:53:37;;;;;;;4.88;3.75;;;;;;;12.03;67.37;98650.38;4994091;28;20033;-70
2021/06/01 22:56:13;;;;;;;7.57;3.50;;;;;;;11.96;67.55;98643.63;4993844;28;20018;-70
2021/06/01 22:58:44;;;;;;;5.13;3.88;;;;;;;11.87;67.87;98643.88;4994003;28;20022;-70
2021/06/01 23:01:18;;;;;;;7.30;3.47;;;;;;;11.78;68.03;98644.91;4993477;28;20022;-70